Time;durP1;ratioP1;P1;durP2;ratioP2;P2;SDS_P1;SDS_P2;PMS_P1;PMS_P2;Temp;Humidity;BMP_temperature;BMP_pressure;BME280_temperature;BME280_humidity;BME280_pressure;Samples;Min_cycle;Max_cycle;Signal;HPM_P1;HPM_P2
2024/04/18 00:02:03;;;;;;;0.90;0.60;;;3.80;99.90;;;;;;5226326;27;20699;-66
2024/04/18 00:04:29;;;;;;;1.27;1.03;;;3.90;99.90;;;;;;5207008;27;20243;-66
2024/04/18 00:06:54;;;;;;;1.60;1.00;;;3.90;99.90;;;;;;5234061;27;20726;-66
2024/04/18 00:09:20;;;;;;;1.53;1.17;;;3.90;99.90;;;;;;5240157;27;20245;-66
2024/04/18 00:11:46;;;;;;;1.40;0.93;;;3.90;99.90;;;;;;5239878;27;20319;-66
2024/04/18 00:14:11;;;;;;;0.73;0.73;;;3.90;99.90;;;;;;5240395;27;20237;-66
2024/04/18 00:16:37;;;;;;;1.23;0.73;;;4.00;99.90;;;;;;5240365;27;20309;-67
2024/04/18 00:19:02;;;;;;;1.30;0.63;;;3.90;99.90;;;;;;5226284;27;20700;-66
2024/04/18 00:21:28;;;;;;;1.43;1.17;;;3.90;99.90;;;;;;5239652;27;20789;-65
2024/04/18 00:23:53;;;;;;;2.97;2.07;;;4.00;99.90;;;;;;5227748;27;20282;-66
2024/04/18 00:26:19;;;;;;;2.27;1.40;;;3.90;99.90;;;;;;5238810;27;20272;-66
2024/04/18 00:28:45;;;;;;;3.27;1.93;;;4.00;99.90;;;;;;5240091;27;20602;-66
2024/04/18 00:31:10;;;;;;;1.10;0.77;;;4.00;99.90;;;;;;5237034;27;20730;-65
2024/04/18 00:33:36;;;;;;;8.30;1.67;;;4.00;99.90;;;;;;5215508;27;20593;-65
2024/04/18 00:36:01;;;;;;;1.90;1.47;;;3.90;99.90;;;;;;5226569;27;20765;-66
2024/04/18 00:38:27;;;;;;;2.27;1.43;;;4.00;99.90;;;;;;5226620;27;20324;-65
2024/04/18 00:40:52;;;;;;;2.10;1.17;;;4.10;99.90;;;;;;5266238;27;20241;-66
2024/04/18 00:43:21;;;;;;;1.97;1.03;;;4.10;99.90;;;;;;5226622;27;20332;-66
2024/04/18 00:45:47;;;;;;;1.37;1.27;;;4.00;99.90;;;;;;5240055;27;20538;-66
2024/04/18 00:48:13;;;;;;;1.63;1.00;;;4.00;99.90;;;;;;5240038;27;20238;-65
2024/04/18 00:50:39;;;;;;;2.80;1.73;;;3.90;99.90;;;;;;5238216;27;20234;-66
2024/04/18 00:53:05;;;;;;;1.70;1.37;;;3.90;99.90;;;;;;5226143;27;20573;-66
2024/04/18 00:55:33;;;;;;;1.17;1.07;;;3.90;99.90;;;;;;5240249;27;20285;-65
2024/04/18 00:57:58;;;;;;;2.97;2.17;;;3.80;99.90;;;;;;5240068;27;20238;-66
2024/04/18 01:00:24;;;;;;;2.27;1.53;;;3.80;99.90;;;;;;5265492;27;20706;-65
2024/04/18 01:02:50;;;;;;;1.67;1.57;;;3.80;99.90;;;;;;5228831;27;20707;-65
2024/04/18 01:05:16;;;;;;;1.97;1.13;;;3.70;99.90;;;;;;5233944;27;20242;-65
2024/04/18 01:07:42;;;;;;;3.10;2.13;;;3.70;99.90;;;;;;5229760;27;20730;-65
2024/04/18 01:10:07;;;;;;;2.23;1.13;;;3.60;99.90;;;;;;5239418;27;20301;-65
2024/04/18 01:12:33;;;;;;;2.67;1.67;;;3.60;99.90;;;;;;5239941;27;20242;-65
2024/04/18 01:14:58;;;;;;;3.30;1.63;;;3.60;99.90;;;;;;5226689;27;20235;-66
2024/04/18 01:17:24;;;;;;;1.80;1.20;;;3.70;99.90;;;;;;5233982;27;20251;-66
2024/04/18 01:19:49;;;;;;;0.90;0.90;;;3.60;99.90;;;;;;5230803;27;20242;-66
2024/04/18 01:22:15;;;;;;;1.03;0.80;;;3.60;99.90;;;;;;5239549;27;20246;-66
2024/04/18 01:24:41;;;;;;;2.40;1.57;;;3.50;99.90;;;;;;5237883;27;20234;-65
2024/04/18 01:27:06;;;;;;;2.07;1.17;;;3.50;99.90;;;;;;5239465;27;20239;-66
2024/04/18 01:29:32;;;;;;;2.33;1.33;;;3.40;99.90;;;;;;5225715;27;20366;-66
2024/04/18 01:31:57;;;;;;;1.70;0.93;;;3.40;99.90;;;;;;5239071;27;20234;-65
2024/04/18 01:34:23;;;;;;;2.03;1.63;;;3.40;99.90;;;;;;5239351;27;20331;-66
2024/04/18 01:36:49;;;;;;;1.43;1.00;;;3.40;99.90;;;;;;5239594;27;20868;-65
2024/04/18 01:39:14;;;;;;;1.53;0.93;;;3.40;99.90;;;;;;5222231;27;20250;-66
2024/04/18 01:41:40;;;;;;;3.90;1.40;;;3.50;99.90;;;;;;5228492;27;20288;-66
2024/04/18 01:44:06;;;;;;;3.40;1.20;;;3.60;99.90;;;;;;5238207;27;20284;-66
2024/04/18 01:46:32;;;;;;;3.77;2.50;;;3.70;99.90;;;;;;5226753;27;20229;-65
2024/04/18 01:48:58;;;;;;;2.30;1.70;;;3.70;99.90;;;;;;5239390;27;20293;-66
2024/04/18 01:51:24;;;;;;;2.00;1.17;;;3.70;99.90;;;;;;5238186;27;20737;-66
2024/04/18 01:53:49;;;;;;;1.27;0.90;;;3.80;99.90;;;;;;5239120;27;20234;-66
2024/04/18 01:56:15;;;;;;;1.70;1.20;;;3.70;99.90;;;;;;5238970;27;20238;-66
2024/04/18 01:58:40;;;;;;;3.50;1.87;;;3.80;99.90;;;;;;5255907;27;20306;-66
2024/04/18 02:01:06;;;;;;;1.70;0.87;;;3.80;99.90;;;;;;5234023;27;20277;-65
2024/04/18 02:03:32;;;;;;;1.40;0.93;;;3.90;99.90;;;;;;5236070;27;20238;-65
2024/04/18 02:05:57;;;;;;;0.97;0.97;;;3.80;99.90;;;;;;5236338;27;20726;-65
2024/04/18 02:08:23;;;;;;;2.60;1.23;;;3.80;99.90;;;;;;5228291;27;20238;-65
2024/04/18 02:10:52;;;;;;;2.27;1.43;;;3.80;99.90;;;;;;5268262;27;20246;-65
2024/04/18 02:13:18;;;;;;;2.27;1.07;;;3.80;99.90;;;;;;5242408;27;20250;-65
2024/04/18 02:15:43;;;;;;;3.57;1.50;;;3.90;99.90;;;;;;5242192;27;20343;-66
2024/04/18 02:18:09;;;;;;;1.60;1.40;;;3.90;99.90;;;;;;5241816;27;20402;-66
2024/04/18 02:20:34;;;;;;;2.03;1.67;;;4.00;99.90;;;;;;5241514;27;20799;-66
2024/04/18 02:23:00;;;;;;;1.37;1.20;;;4.00;99.90;;;;;;5228740;27;20821;-65
2024/04/18 02:25:26;;;;;;;2.73;1.73;;;4.10;99.90;;;;;;5236150;27;20678;-65
2024/04/18 02:27:51;;;;;;;1.13;1.03;;;4.10;99.90;;;;;;5234155;27;20292;-66
2024/04/18 02:30:17;;;;;;;3.10;1.60;;;4.10;99.90;;;;;;5241190;27;20325;-65
2024/04/18 02:32:42;;;;;;;2.17;1.97;;;4.10;99.90;;;;;;5242236;27;20783;-65
2024/04/18 02:35:08;;;;;;;3.30;1.67;;;4.10;99.90;;;;;;5241929;27;20238;-65
2024/04/18 02:37:34;;;;;;;2.37;2.10;;;4.10;99.90;;;;;;5241883;27;20238;-65
2024/04/18 02:40:00;;;;;;;2.73;1.70;;;4.10;99.90;;;;;;5227652;27;20380;-65
2024/04/18 02:42:25;;;;;;;1.83;0.80;;;4.20;99.90;;;;;;5241675;27;20238;-65
2024/04/18 02:44:51;;;;;;;3.20;1.47;;;4.20;99.90;;;;;;5241811;27;20234;-66
2024/04/18 02:47:17;;;;;;;3.93;2.33;;;4.20;99.90;;;;;;5242221;27;20284;-65
2024/04/18 02:49:42;;;;;;;3.17;1.57;;;4.20;99.90;;;;;;5241100;27;20633;-65
2024/04/18 02:52:08;;;;;;;1.93;1.33;;;4.20;99.90;;;;;;5241839;27;20288;-66
2024/04/18 02:54:34;;;;;;;3.17;2.20;;;4.20;99.90;;;;;;5241608;27;20275;-66
2024/04/18 02:56:59;;;;;;;2.47;1.60;;;4.20;99.90;;;;;;5241907;27;20234;-66
2024/04/18 02:59:25;;;;;;;2.80;2.37;;;4.20;99.90;;;;;;5241395;27;20242;-65
2024/04/18 03:01:51;;;;;;;8.20;2.73;;;4.20;99.90;;;;;;5240938;27;20234;-65
2024/04/18 03:04:16;;;;;;;1.67;1.47;;;4.20;99.90;;;;;;5228011;27;20231;-65
2024/04/18 03:06:45;;;;;;;3.10;2.00;;;4.20;99.90;;;;;;5241189;27;20237;-66
2024/04/18 03:09:12;;;;;;;3.47;2.03;;;4.20;99.90;;;;;;5241130;27;20241;-66
2024/04/18 03:11:38;;;;;;;3.10;1.90;;;4.20;99.90;;;;;;5267257;27;20336;-66
2024/04/18 03:14:03;;;;;;;2.63;1.57;;;4.30;99.90;;;;;;5240243;27;20233;-66
2024/04/18 03:16:30;;;;;;;3.37;2.20;;;4.20;99.90;;;;;;5241423;27;20241;-65
2024/04/18 03:18:55;;;;;;;1.67;1.57;;;4.30;99.90;;;;;;5241315;27;20250;-65
2024/04/18 03:21:21;;;;;;;4.80;2.60;;;4.20;99.90;;;;;;5236055;27;20797;-65
2024/04/18 03:23:46;;;;;;;3.33;1.87;;;4.20;99.90;;;;;;5208341;27;20254;-65
2024/04/18 03:26:12;;;;;;;3.23;1.87;;;4.20;99.90;;;;;;5237519;27;20230;-66
2024/04/18 03:28:37;;;;;;;3.60;1.83;;;4.20;99.90;;;;;;5240845;27;20238;-65
2024/04/18 03:31:03;;;;;;;3.43;1.30;;;4.20;99.90;;;;;;5240223;27;20348;-65
2024/04/18 03:33:29;;;;;;;4.83;2.20;;;4.20;99.90;;;;;;5241008;27;20344;-64
2024/04/18 03:35:54;;;;;;;2.83;2.07;;;4.20;99.90;;;;;;5228751;27;20255;-65
2024/04/18 03:38:20;;;;;;;2.50;1.80;;;4.20;99.90;;;;;;5239146;27;20238;-66
2024/04/18 03:40:56;;;;;;;4.27;2.60;;;4.10;99.90;;;;;;5226842;27;20234;-65
2024/04/18 03:43:22;;;;;;;1.93;1.43;;;4.20;99.90;;;;;;5240877;27;20947;-65
2024/04/18 03:46:08;;;;;;;2.70;2.20;;;4.00;99.90;;;;;;5241243;27;20234;-65
2024/04/18 03:48:34;;;;;;;3.23;1.60;;;4.00;99.90;;;;;;5214529;27;20237;-65
2024/04/18 03:50:59;;;;;;;2.60;1.60;;;4.00;99.90;;;;;;5226636;27;20276;-66
2024/04/18 03:53:25;;;;;;;5.90;2.13;;;4.00;99.90;;;;;;5240942;27;20229;-66
2024/04/18 03:55:51;;;;;;;2.70;2.10;;;3.90;99.90;;;;;;5240771;27;20238;-66
2024/04/18 03:58:16;;;;;;;2.17;1.33;;;3.90;99.90;;;;;;5226837;27;20226;-66
2024/04/18 04:00:42;;;;;;;2.43;1.83;;;3.90;99.90;;;;;;5238629;27;20233;-65
2024/04/18 04:03:08;;;;;;;2.90;2.03;;;3.90;99.90;;;;;;5240566;27;20332;-65
2024/04/18 04:05:33;;;;;;;2.47;1.90;;;3.90;99.90;;;;;;5232967;27;20227;-65
2024/04/18 04:08:05;;;;;;;2.57;1.73;;;3.90;99.90;;;;;;5234455;27;20330;-65
2024/04/18 04:10:30;;;;;;;2.23;1.53;;;3.90;99.90;;;;;;5227478;27;20738;-65
2024/04/18 04:12:56;;;;;;;2.97;1.90;;;3.90;99.90;;;;;;5241139;27;20346;-65
2024/04/18 04:15:22;;;;;;;2.83;1.87;;;3.90;99.90;;;;;;5240375;27;20241;-66
2024/04/18 04:17:47;;;;;;;2.70;1.83;;;3.90;99.90;;;;;;5240439;27;20340;-66
2024/04/18 04:20:13;;;;;;;3.63;2.17;;;3.90;99.90;;;;;;5239718;27;20301;-66
2024/04/18 04:22:39;;;;;;;3.47;1.70;;;3.90;99.90;;;;;;5240808;27;20241;-65
2024/04/18 04:25:04;;;;;;;8.37;2.10;;;3.90;99.90;;;;;;5239777;27;20233;-65
2024/04/18 04:27:30;;;;;;;3.00;1.77;;;3.90;99.90;;;;;;5227506;27;20230;-65
2024/04/18 04:29:55;;;;;;;3.70;2.23;;;4.00;99.90;;;;;;5239636;27;20245;-66
2024/04/18 04:32:22;;;;;;;4.13;2.20;;;4.00;99.90;;;;;;5225068;27;20235;-65
2024/04/18 04:34:51;;;;;;;3.77;1.93;;;4.00;99.90;;;;;;5239563;27;20229;-66
2024/04/18 04:37:17;;;;;;;6.30;1.97;;;4.00;99.90;;;;;;5238957;27;20276;-66
2024/04/18 04:39:43;;;;;;;3.50;2.47;;;4.10;99.90;;;;;;5238550;27;20780;-65
2024/04/18 04:42:09;;;;;;;3.93;2.30;;;4.10;99.90;;;;;;5239268;27;20229;-65
2024/04/18 04:44:34;;;;;;;5.70;2.40;;;4.20;99.90;;;;;;5237541;27;20574;-65
2024/04/18 04:47:00;;;;;;;4.83;2.33;;;4.20;99.90;;;;;;5225542;27;20292;-66
2024/04/18 04:49:25;;;;;;;2.70;2.00;;;4.30;99.90;;;;;;5239021;27;20364;-67
2024/04/18 04:51:51;;;;;;;5.33;2.30;;;4.30;99.90;;;;;;5238484;27;20313;-66
2024/04/18 04:54:17;;;;;;;4.73;2.70;;;4.30;99.90;;;;;;5225049;27;20237;-66
2024/04/18 04:56:43;;;;;;;2.83;1.80;;;4.40;99.90;;;;;;5239404;27;20233;-66
2024/04/18 04:59:08;;;;;;;3.57;2.17;;;4.40;99.90;;;;;;5238606;27;20800;-67
2024/04/18 05:01:34;;;;;;;4.40;2.43;;;4.50;99.90;;;;;;5238533;27;20238;-67
2024/04/18 05:03:59;;;;;;;2.77;1.70;;;4.60;99.90;;;;;;5239609;27;20245;-66
2024/04/18 05:06:25;;;;;;;5.27;2.87;;;4.60;99.90;;;;;;5238917;27;20241;-66
2024/04/18 05:08:51;;;;;;;3.77;2.50;;;4.60;99.90;;;;;;5239327;27;20238;-66
2024/04/18 05:11:16;;;;;;;3.40;2.83;;;4.70;99.90;;;;;;5236719;27;20341;-66
2024/04/18 05:13:42;;;;;;;3.93;2.23;;;4.70;99.90;;;;;;5239018;27;20233;-66
2024/04/18 05:16:07;;;;;;;3.70;2.53;;;4.70;99.90;;;;;;5238791;27;20288;-64
2024/04/18 05:18:33;;;;;;;7.23;2.77;;;4.80;99.90;;;;;;5237617;27;20289;-65
2024/04/18 05:20:59;;;;;;;2.80;1.97;;;4.80;99.90;;;;;;5238207;27;20284;-66
2024/04/18 05:23:24;;;;;;;3.50;1.90;;;4.90;99.90;;;;;;5233815;27;20735;-66
2024/04/18 05:25:50;;;;;;;3.47;2.43;;;5.00;99.90;;;;;;5229771;27;20469;-66
2024/04/18 05:28:30;;;;;;;5.30;2.70;;;5.00;99.90;;;;;;5238555;27;20255;-66
2024/04/18 05:31:00;;;;;;;3.50;2.10;;;5.00;99.90;;;;;;5226258;27;20285;-66
2024/04/18 05:33:26;;;;;;;1.97;1.60;;;5.00;99.90;;;;;;5224025;27;20234;-66
2024/04/18 05:35:52;;;;;;;4.43;1.93;;;5.00;99.90;;;;;;5238264;27;20942;-66
2024/04/18 05:38:18;;;;;;;5.33;2.83;;;5.10;99.90;;;;;;5241272;27;20237;-66
2024/04/18 05:40:45;;;;;;;6.80;3.80;;;5.10;99.90;;;;;;5241041;27;20348;-66
2024/04/18 05:43:10;;;;;;;3.77;2.67;;;5.20;99.90;;;;;;5241244;27;20233;-67
2024/04/18 05:45:36;;;;;;;4.03;2.10;;;5.20;99.90;;;;;;5241515;27;20335;-67
2024/04/18 05:48:01;;;;;;;4.77;2.17;;;5.20;99.90;;;;;;5241269;27;20321;-66
2024/04/18 05:50:27;;;;;;;2.47;1.57;;;5.30;99.90;;;;;;5240733;27;20242;-66
2024/04/18 05:52:53;;;;;;;5.47;2.30;;;5.40;99.90;;;;;;5241913;27;20238;-66
2024/04/18 05:55:19;;;;;;;3.30;1.73;;;5.40;99.90;;;;;;5241388;27;20316;-66
2024/04/18 05:57:44;;;;;;;3.70;2.00;;;5.50;99.90;;;;;;5241491;27;20246;-66
2024/04/18 06:00:13;;;;;;;6.87;2.73;;;5.60;99.90;;;;;;5240779;27;20238;-66
2024/04/18 06:02:39;;;;;;;3.77;2.20;;;5.60;99.90;;;;;;5227704;27;20289;-67
2024/04/18 06:05:05;;;;;;;4.83;2.40;;;5.70;99.90;;;;;;5241383;27;20817;-67
2024/04/18 06:07:30;;;;;;;4.90;2.33;;;5.70;99.90;;;;;;5241771;27;20238;-66
2024/04/18 06:09:57;;;;;;;4.23;2.40;;;5.70;99.90;;;;;;5227349;27;20238;-67
2024/04/18 06:12:22;;;;;;;4.47;2.23;;;5.70;99.90;;;;;;5241665;27;20289;-66
2024/04/18 06:14:48;;;;;;;3.83;2.00;;;5.70;99.90;;;;;;5241643;27;20345;-66
2024/04/18 06:17:14;;;;;;;4.37;2.03;;;5.80;99.90;;;;;;5239027;27;20301;-66
2024/04/18 06:19:41;;;;;;;2.70;1.63;;;5.90;99.90;;;;;;5229244;27;20297;-67
2024/04/18 06:22:06;;;;;;;4.13;2.00;;;5.80;99.90;;;;;;5241060;27;20800;-66
2024/04/18 06:24:32;;;;;;;3.33;1.97;;;5.80;99.90;;;;;;5241295;27;20229;-66
2024/04/18 06:26:58;;;;;;;2.87;1.63;;;5.90;99.90;;;;;;5241460;27;20234;-67
2024/04/18 06:29:24;;;;;;;5.50;1.87;;;5.90;99.90;;;;;;5238860;27;20284;-67
2024/04/18 06:31:49;;;;;;;3.27;2.00;;;6.00;99.90;;;;;;5240312;27;20237;-67
2024/04/18 06:34:15;;;;;;;2.33;1.63;;;6.10;99.90;;;;;;5240876;27;20663;-66
2024/04/18 06:36:40;;;;;;;2.60;1.57;;;6.20;99.90;;;;;;5240994;27;20234;-66
2024/04/18 06:39:07;;;;;;;7.17;2.47;;;6.30;99.90;;;;;;5238939;27;20288;-66
2024/04/18 06:41:34;;;;;;;3.87;1.60;;;6.50;99.90;;;;;;5238239;27;20574;-66
2024/04/18 06:44:00;;;;;;;5.03;2.40;;;6.60;99.90;;;;;;5237928;27;20284;-66
2024/04/18 06:46:27;;;;;;;4.03;1.57;;;6.60;99.90;;;;;;5239348;27;20238;-66
2024/04/18 06:48:53;;;;;;;2.97;1.70;;;6.70;99.90;;;;;;5238678;27;20245;-67
2024/04/18 06:51:18;;;;;;;5.33;2.50;;;6.80;99.90;;;;;;5236373;27;20278;-66
2024/04/18 06:53:44;;;;;;;4.10;2.50;;;7.10;99.90;;;;;;5220666;27;20333;-66
2024/04/18 06:56:10;;;;;;;3.43;1.83;;;7.20;99.90;;;;;;5235467;27;20277;-66
2024/04/18 06:58:35;;;;;;;4.20;2.00;;;7.30;99.90;;;;;;5240502;27;20389;-66
2024/04/18 07:01:01;;;;;;;3.47;1.60;;;7.40;99.90;;;;;;5240107;27;20229;-66
2024/04/18 07:03:27;;;;;;;2.67;2.00;;;7.50;99.90;;;;;;5240573;27;20250;-67
2024/04/18 07:05:52;;;;;;;4.23;1.90;;;7.70;99.90;;;;;;5240640;27;20249;-65
2024/04/18 07:08:18;;;;;;;2.00;1.53;;;7.90;99.90;;;;;;5240347;27;20250;-68
2024/04/18 07:10:44;;;;;;;2.07;1.33;;;7.90;99.90;;;;;;5226445;27;20235;-65
2024/04/18 07:13:09;;;;;;;2.70;1.43;;;7.90;99.90;;;;;;5240331;27;20363;-67
2024/04/18 07:15:35;;;;;;;3.80;1.50;;;8.10;99.90;;;;;;5240393;27;20379;-67
2024/04/18 07:18:00;;;;;;;2.67;1.73;;;8.10;99.90;;;;;;5240379;27;20237;-66
2024/04/18 07:20:26;;;;;;;2.63;1.70;;;8.00;99.90;;;;;;5239317;27;20272;-68
2024/04/18 07:22:52;;;;;;;1.97;1.47;;;8.10;99.90;;;;;;5240453;27;21166;-66
2024/04/18 07:25:17;;;;;;;2.50;1.37;;;7.80;99.90;;;;;;5240060;27;20284;-66
2024/04/18 07:27:43;;;;;;;0.93;0.60;;;7.70;99.90;;;;;;5226500;27;20234;-66
2024/04/18 07:30:09;;;;;;;1.60;1.10;;;7.70;99.90;;;;;;5239337;27;20234;-67
2024/04/18 07:32:36;;;;;;;1.63;0.90;;;7.60;99.90;;;;;;5240410;27;20284;-66
2024/04/18 07:35:01;;;;;;;2.90;1.47;;;7.70;99.90;;;;;;5238686;27;20276;-66
2024/04/18 07:37:27;;;;;;;2.87;1.50;;;7.90;99.90;;;;;;5240006;27;20242;-67
2024/04/18 07:39:54;;;;;;;2.70;1.50;;;8.40;99.90;;;;;;5239487;27;20245;-67
2024/04/18 07:42:20;;;;;;;2.17;1.20;;;8.80;99.90;;;;;;5236654;27;20279;-66
2024/04/18 07:44:45;;;;;;;1.43;1.00;;;8.90;99.90;;;;;;5229680;27;20274;-67
2024/04/18 07:47:11;;;;;;;2.57;1.53;;;9.20;99.90;;;;;;5239913;27;20341;-67
2024/04/18 07:49:37;;;;;;;2.27;1.53;;;9.70;99.90;;;;;;5232037;27;20242;-68
2024/04/18 07:52:03;;;;;;;2.70;1.07;;;10.30;99.90;;;;;;5233827;27;20675;-67
2024/04/18 07:54:29;;;;;;;2.10;1.10;;;10.60;99.90;;;;;;5239475;27;20241;-67
2024/04/18 07:56:54;;;;;;;1.33;1.03;;;10.90;99.90;;;;;;5228979;27;20779;-67
2024/04/18 07:59:20;;;;;;;1.60;1.10;;;10.60;99.90;;;;;;5223009;27;20266;-67
2024/04/18 08:01:46;;;;;;;1.30;0.97;;;10.50;99.90;;;;;;5230290;27;20234;-66
2024/04/18 08:04:11;;;;;;;1.67;0.90;;;10.00;99.90;;;;;;5235682;27;20567;-66
2024/04/18 08:06:38;;;;;;;2.60;1.47;;;10.00;99.90;;;;;;5239429;27;20284;-66
2024/04/18 08:09:04;;;;;;;1.03;0.90;;;9.90;99.90;;;;;;5239979;27;20238;-66
2024/04/18 08:11:33;;;;;;;3.47;1.33;;;9.70;99.90;;;;;;5225034;27;20310;-67
2024/04/18 08:13:58;;;;;;;2.33;1.20;;;9.60;99.90;;;;;;5239744;27;20234;-67
2024/04/18 08:16:24;;;;;;;1.27;0.73;;;9.70;99.90;;;;;;5239955;27;20340;-66
2024/04/18 08:18:49;;;;;;;6.53;1.60;;;9.80;99.90;;;;;;5239308;27;20265;-67
2024/04/18 08:21:15;;;;;;;2.93;1.10;;;9.80;99.90;;;;;;5239013;27;20237;-67
2024/04/18 08:23:40;;;;;;;1.93;1.33;;;9.60;99.90;;;;;;5265956;27;20237;-67
2024/04/18 08:26:06;;;;;;;1.30;0.90;;;9.70;99.90;;;;;;5239474;27;20301;-67
2024/04/18 08:28:31;;;;;;;7.23;1.27;;;9.70;99.90;;;;;;5240046;27;20238;-67
2024/04/18 08:30:57;;;;;;;1.57;0.80;;;9.60;99.90;;;;;;5227288;27;20243;-67
2024/04/18 08:33:23;;;;;;;1.80;0.73;;;9.60;99.90;;;;;;5237863;27;20230;-67
2024/04/18 08:35:48;;;;;;;1.63;0.90;;;9.70;99.90;;;;;;5239765;27;20333;-67
2024/04/18 08:38:14;;;;;;;1.70;1.07;;;9.70;99.90;;;;;;5225499;27;20289;-67
2024/04/18 08:40:44;;;;;;;1.17;0.73;;;9.60;99.90;;;;;;5238690;27;20326;-67
2024/04/18 08:43:11;;;;;;;2.50;1.20;;;9.50;99.90;;;;;;5239592;27;20241;-67
2024/04/18 08:45:38;;;;;;;1.43;0.90;;;9.60;99.90;;;;;;5239321;27;20276;-66
2024/04/18 08:48:05;;;;;;;1.13;0.77;;;10.20;99.90;;;;;;5239313;27;20366;-67
2024/04/18 08:50:32;;;;;;;1.20;0.80;;;11.40;99.90;;;;;;5238622;27;20269;-67
2024/04/18 08:52:58;;;;;;;1.47;0.77;;;12.60;99.90;;;;;;5227891;27;20298;-67
2024/04/18 08:55:23;;;;;;;1.53;1.07;;;13.10;99.90;;;;;;5263416;27;20245;-67
2024/04/18 08:58:01;;;;;;;1.00;0.70;;;13.20;99.90;;;;;;5238955;27;20730;-67
2024/04/18 09:00:26;;;;;;;1.67;0.90;;;12.70;99.90;;;;;;5238111;27;20353;-67
2024/04/18 09:02:52;;;;;;;1.53;1.17;;;12.60;99.90;;;;;;5229145;27;20557;-67
2024/04/18 09:05:18;;;;;;;2.67;1.53;;;12.20;99.90;;;;;;5222162;27;20237;-67
2024/04/18 09:07:44;;;;;;;4.57;2.00;;;11.70;99.90;;;;;;5225008;27;20279;-67
2024/04/18 09:10:10;;;;;;;3.00;1.43;;;11.40;99.90;;;;;;5238062;27;20785;-68
2024/04/18 09:12:36;;;;;;;1.90;1.00;;;11.20;99.90;;;;;;5226741;27;20627;-67
2024/04/18 09:15:05;;;;;;;1.37;1.00;;;11.00;99.90;;;;;;5247752;27;20369;-67
2024/04/18 09:17:30;;;;;;;0.87;0.77;;;10.80;99.90;;;;;;5243446;27;20265;-67
2024/04/18 09:19:56;;;;;;;3.50;1.20;;;10.80;99.90;;;;;;5245132;27;20303;-67
2024/04/18 09:22:21;;;;;;;4.20;0.90;;;10.60;99.90;;;;;;5244325;27;20738;-67
2024/04/18 09:24:47;;;;;;;0.80;0.63;;;10.60;99.90;;;;;;5243377;27;20234;-67
2024/04/18 09:27:14;;;;;;;1.27;0.83;;;10.50;99.90;;;;;;5239486;27;20347;-67
2024/04/18 09:29:46;;;;;;;2.37;1.00;;;10.40;99.90;;;;;;5233990;27;20297;-67
2024/04/18 09:32:14;;;;;;;1.63;1.07;;;10.30;99.90;;;;;;5237254;27;20241;-67
2024/04/18 09:34:43;;;;;;;3.57;1.30;;;10.30;99.90;;;;;;5226664;27;20332;-67
2024/04/18 09:37:12;;;;;;;1.13;0.97;;;10.10;99.90;;;;;;5238574;27;20245;-67
2024/04/18 09:39:38;;;;;;;0.97;0.90;;;10.20;99.90;;;;;;5237345;27;20246;-67
2024/04/18 09:42:40;;;;;;;1.40;0.90;;;10.30;99.90;;;;;;5224905;27;20279;-67
2024/04/18 09:45:10;;;;;;;0.87;0.83;;;10.30;99.90;;;;;;5238041;27;20275;-67
2024/04/18 09:47:39;;;;;;;1.03;0.80;;;10.30;99.90;;;;;;5228353;27;20287;-67
2024/04/18 09:50:05;;;;;;;1.73;0.83;;;10.40;99.90;;;;;;5245813;27;20284;-67
2024/04/18 09:52:32;;;;;;;2.30;0.73;;;10.50;99.90;;;;;;5221726;27;20759;-67
2024/04/18 09:55:00;;;;;;;2.30;0.93;;;10.80;99.90;;;;;;5246347;27;20245;-67
2024/04/18 09:57:27;;;;;;;0.90;0.83;;;10.80;99.90;;;;;;5220662;27;20281;-67
2024/04/18 09:59:54;;;;;;;2.00;1.10;;;11.10;99.90;;;;;;5225801;27;20619;-67
2024/04/18 10:02:21;;;;;;;1.27;0.70;;;11.40;99.90;;;;;;5237946;27;20284;-67
2024/04/18 10:04:47;;;;;;;1.10;0.70;;;12.00;99.90;;;;;;5221922;27;20286;-67
2024/04/18 10:07:15;;;;;;;1.13;0.83;;;12.20;99.90;;;;;;5233598;27;20769;-67
2024/04/18 10:09:43;;;;;;;1.73;1.00;;;12.10;99.90;;;;;;5263406;27;20292;-68
2024/04/18 10:12:09;;;;;;;1.70;0.87;;;12.00;99.90;;;;;;5237727;27;20280;-68
2024/04/18 10:14:38;;;;;;;0.90;0.63;;;11.80;99.90;;;;;;5237928;27;20297;-67
2024/04/18 10:17:04;;;;;;;1.10;0.70;;;11.70;99.90;;;;;;5223949;27;20281;-67
2024/04/18 10:19:31;;;;;;;1.33;0.90;;;11.70;99.90;;;;;;5237737;27;20241;-67
2024/04/18 10:21:57;;;;;;;1.17;0.80;;;11.60;99.90;;;;;;5235735;27;20290;-67
2024/04/18 10:24:35;;;;;;;0.93;0.60;;;11.60;99.90;;;;;;5227510;27;20738;-67
2024/04/18 10:27:08;;;;;;;1.10;0.60;;;11.70;99.90;;;;;;5241491;27;20297;-68
2024/04/18 10:29:34;;;;;;;1.17;0.60;;;11.70;99.90;;;;;;5241445;27;20436;-67
2024/04/18 10:32:03;;;;;;;3.13;0.90;;;11.60;99.90;;;;;;5267076;27;20246;-68
2024/04/18 10:34:29;;;;;;;1.60;1.07;;;12.20;99.90;;;;;;5241318;27;20238;-68
2024/04/18 10:37:05;;;;;;;1.27;0.93;;;12.90;99.90;;;;;;5241199;27;20263;-68
2024/04/18 10:39:36;;;;;;;1.57;1.20;;;12.80;99.90;;;;;;5266945;27;20346;-67
2024/04/18 10:42:03;;;;;;;1.50;0.83;;;12.60;99.90;;;;;;5241210;27;20297;-67
2024/04/18 10:44:29;;;;;;;1.00;0.73;;;12.20;99.90;;;;;;5225392;27;20242;-67
2024/04/18 10:46:55;;;;;;;1.67;0.80;;;11.90;99.90;;;;;;5241210;27;20242;-67
2024/04/18 10:49:22;;;;;;;1.83;1.07;;;11.60;99.90;;;;;;5227211;27;20239;-67
2024/04/18 10:51:49;;;;;;;1.63;0.97;;;11.20;99.90;;;;;;5240316;27;20234;-67
2024/04/18 10:54:15;;;;;;;1.17;0.70;;;11.30;99.90;;;;;;5239146;27;20793;-67
2024/04/18 10:56:41;;;;;;;2.10;0.73;;;11.40;99.90;;;;;;5228825;27;20269;-67
2024/04/18 10:59:10;;;;;;;1.67;1.03;;;11.70;99.90;;;;;;5240624;27;20287;-67
2024/04/18 11:01:38;;;;;;;2.00;1.20;;;11.70;99.90;;;;;;5240374;27;20281;-67
2024/04/18 11:04:04;;;;;;;1.63;0.90;;;11.70;99.90;;;;;;5240998;27;20307;-67
2024/04/18 11:06:30;;;;;;;1.57;0.90;;;11.90;99.90;;;;;;5227182;27;20292;-67
2024/04/18 11:08:55;;;;;;;1.37;0.73;;;12.40;99.90;;;;;;5240760;27;20234;-68
2024/04/18 11:11:26;;;;;;;1.03;0.63;;;13.30;99.90;;;;;;5226184;27;20349;-68
2024/04/18 11:13:56;;;;;;;1.20;0.77;;;13.80;99.90;;;;;;5240917;27;20304;-68
2024/04/18 11:16:24;;;;;;;1.10;0.70;;;14.10;99.90;;;;;;5235813;27;20307;-68
2024/04/18 11:18:50;;;;;;;1.10;0.80;;;14.00;99.90;;;;;;5240207;27;20766;-68
2024/04/18 11:21:16;;;;;;;1.17;0.70;;;13.50;99.90;;;;;;5266036;27;20264;-68
2024/04/18 11:23:42;;;;;;;1.73;0.93;;;13.20;99.90;;;;;;5240113;27;20484;-68
2024/04/18 11:26:10;;;;;;;1.47;0.77;;;12.80;99.90;;;;;;5240301;27;20242;-67
2024/04/18 11:28:36;;;;;;;0.83;0.70;;;12.50;99.90;;;;;;5226994;27;20348;-68
2024/04/18 11:31:02;;;;;;;2.03;0.90;;;12.10;99.90;;;;;;5225756;27;20242;-68
2024/04/18 11:33:27;;;;;;;1.63;0.87;;;11.90;99.90;;;;;;5235943;27;20237;-68
2024/04/18 11:35:54;;;;;;;2.00;0.90;;;11.70;99.90;;;;;;5230646;27;20288;-68
2024/04/18 11:38:20;;;;;;;2.27;1.33;;;12.00;99.90;;;;;;5239760;27;20361;-68
2024/04/18 11:40:46;;;;;;;1.20;0.70;;;12.50;99.90;;;;;;5231231;27;20353;-68
2024/04/18 11:43:12;;;;;;;3.00;0.67;;;13.50;99.90;;;;;;5234940;27;20393;-68
2024/04/18 11:45:38;;;;;;;0.40;0.40;;;14.40;99.90;;;;;;5240108;27;20688;-68
2024/04/18 11:48:04;;;;;;;4.90;1.50;;;14.80;99.90;;;;;;5227497;27;20238;-67
2024/04/18 11:50:30;;;;;;;1.10;0.50;;;15.00;99.90;;;;;;5238238;27;20351;-68
2024/04/18 11:52:56;;;;;;;1.20;0.80;;;14.70;99.90;;;;;;5240376;27;20245;-69
2024/04/18 11:55:22;;;;;;;1.70;0.90;;;14.40;99.90;;;;;;5239930;27;20237;-68
2024/04/18 11:57:48;;;;;;;1.77;1.10;;;13.90;99.90;;;;;;5240241;27;20800;-69
2024/04/18 12:00:14;;;;;;;1.57;1.00;;;13.50;99.90;;;;;;5239442;27;20297;-68
2024/04/18 12:02:39;;;;;;;1.03;0.90;;;13.10;99.90;;;;;;5239969;27;20592;-67
2024/04/18 12:05:07;;;;;;;2.33;1.00;;;12.80;99.90;;;;;;5238782;27;20233;-67
2024/04/18 12:07:33;;;;;;;0.67;0.63;;;12.60;99.90;;;;;;5239694;27;20575;-67
2024/04/18 12:09:58;;;;;;;2.43;1.40;;;12.50;99.90;;;;;;5239369;27;20377;-68
2024/04/18 12:12:24;;;;;;;0.83;0.50;;;12.50;99.90;;;;;;5236258;27;20237;-68
2024/04/18 12:14:50;;;;;;;1.77;0.97;;;12.40;99.90;;;;;;5229868;27;20249;-67
2024/04/18 12:17:16;;;;;;;1.23;0.83;;;12.60;99.90;;;;;;5239588;27;20783;-67
2024/04/18 12:19:42;;;;;;;0.70;0.53;;;12.60;99.90;;;;;;5238832;27;20238;-67
2024/04/18 12:22:15;;;;;;;6.43;1.00;;;12.60;99.90;;;;;;5240082;27;20344;-68
2024/04/18 12:24:40;;;;;;;2.30;0.80;;;12.90;99.90;;;;;;5240270;27;20284;-68
2024/04/18 12:27:06;;;;;;;0.73;0.70;;;13.50;99.90;;;;;;5239813;27;20237;-68
2024/04/18 12:29:32;;;;;;;1.97;0.90;;;14.40;99.90;;;;;;5239510;27;20325;-67
2024/04/18 12:31:59;;;;;;;0.87;0.60;;;14.90;99.90;;;;;;5239354;27;20832;-68
2024/04/18 12:34:25;;;;;;;1.43;0.63;;;15.20;99.90;;;;;;5239818;27;20286;-68
2024/04/18 12:36:51;;;;;;;2.33;1.00;;;15.10;99.90;;;;;;5239645;27;20233;-68
2024/04/18 12:39:17;;;;;;;1.83;0.87;;;14.80;99.90;;;;;;5237577;27;20289;-67
2024/04/18 12:41:43;;;;;;;1.07;0.77;;;14.80;99.90;;;;;;5239306;27;20596;-67
2024/04/18 12:44:09;;;;;;;2.17;0.70;;;14.60;99.90;;;;;;5239641;27;20250;-67
2024/04/18 12:46:35;;;;;;;0.73;0.53;;;14.20;99.90;;;;;;5239451;27;20353;-66
2024/04/18 12:49:01;;;;;;;1.30;0.80;;;13.90;99.90;;;;;;5225925;27;20711;-66